Terminal Aerodrome Forecast
Issued by NWS

Home | Current Version | Previous Version | Text Only | Print | Product List | Glossary On
Versions: 1 2 3 4 5 6 7 8 9 10 11 12 13 14 15 16 17
739
FTUS42 KTBW 231732
TAFLAL
TAF
KLAL 231732Z 2318/2418 22013G19KT P6SM BKN035
     FM232100 24016G23KT P6SM VCTS SCT050CB SCT120 BKN200
     FM240100 23008KT P6SM SCT025 SCT050 BKN200
     FM240900 20011KT P6SM VCTS SCT025CB BKN050
     FM241500 21016G23KT 5SM -RA VCTS SCT030CB OVC050=

USA.gov is the U.S. government's official web portal to all federal, state and local government web resources and services.